Time;durP1;ratioP1;P1;durP2;ratioP2;P2;SDS_P1;SDS_P2;PMS_P1;PMS_P2;Temp;Humidity;BMP_temperature;BMP_pressure;BME280_temperature;BME280_humidity;BME280_pressure;Samples;Min_cycle;Max_cycle;Signal;HPM_P1;HPM_P2
2021/03/25 00:00:56;;;;;;;20.67;16.03;;;6.30;99.90;;;;;;5008684;28;20436;-68
2021/03/25 00:03:22;;;;;;;17.83;12.97;;;6.30;99.90;;;;;;5005368;28;20461;-69
2021/03/25 00:05:50;;;;;;;20.10;13.63;;;6.30;99.90;;;;;;5010279;28;20515;-68
2021/03/25 00:08:20;;;;;;;23.90;13.13;;;6.20;99.90;;;;;;4998620;28;20538;-69
2021/03/25 00:10:46;;;;;;;18.50;13.40;;;6.20;99.90;;;;;;5004097;28;20488;-67
2021/03/25 00:13:11;;;;;;;20.43;15.30;;;6.20;99.90;;;;;;5007182;28;20453;-68
2021/03/25 00:15:38;;;;;;;18.70;13.73;;;6.10;99.90;;;;;;5006090;28;20806;-69
2021/03/25 00:18:05;;;;;;;16.10;13.60;;;6.10;99.90;;;;;;4994508;28;20426;-68
2021/03/25 00:20:30;;;;;;;18.90;13.27;;;6.10;99.90;;;;;;4993665;28;20435;-68
2021/03/25 00:22:56;;;;;;;17.63;13.43;;;6.10;99.90;;;;;;4977260;28;21011;-68
2021/03/25 00:25:28;;;;;;;22.23;16.03;;;6.10;99.90;;;;;;4994492;28;20214;-69
2021/03/25 00:27:54;;;;;;;19.50;14.40;;;6.10;99.90;;;;;;5008426;28;20187;-69
2021/03/25 00:30:23;;;;;;;18.13;14.13;;;6.10;99.90;;;;;;4996999;28;20426;-68
2021/03/25 00:32:49;;;;;;;24.70;14.50;;;6.10;99.90;;;;;;5005146;28;20249;-68
2021/03/25 00:35:15;;;;;;;18.83;14.10;;;6.20;99.90;;;;;;4998042;28;20945;-68
2021/03/25 00:37:41;;;;;;;33.33;26.20;;;6.20;99.90;;;;;;4992714;28;21030;-68
2021/03/25 00:40:09;;;;;;;28.07;21.80;;;6.10;99.90;;;;;;4999306;28;20426;-68
2021/03/25 00:42:35;;;;;;;35.30;27.80;;;6.20;99.90;;;;;;5003735;28;22212;-68
2021/03/25 00:45:03;;;;;;;38.57;30.80;;;6.10;99.90;;;;;;4999424;28;20430;-69
2021/03/25 00:47:28;;;;;;;40.00;30.77;;;6.00;99.90;;;;;;5002579;28;20262;-68
2021/03/25 00:49:53;;;;;;;33.70;25.80;;;5.90;99.90;;;;;;4993253;28;20522;-68
2021/03/25 00:52:19;;;;;;;29.47;25.67;;;5.90;99.90;;;;;;4992799;28;20190;-69
2021/03/25 00:54:45;;;;;;;31.27;24.47;;;5.90;99.90;;;;;;4996578;28;20192;-68
2021/03/25 00:57:10;;;;;;;31.90;25.97;;;5.80;99.90;;;;;;5008449;28;20185;-68
2021/03/25 00:59:36;;;;;;;30.10;25.00;;;5.80;99.90;;;;;;4995361;28;20271;-68
2021/03/25 01:02:02;;;;;;;23.33;17.70;;;5.70;99.90;;;;;;5003248;28;20189;-68
2021/03/25 01:04:27;;;;;;;20.53;16.60;;;5.80;99.90;;;;;;5005127;28;20504;-69
2021/03/25 01:06:53;;;;;;;18.33;14.77;;;5.70;99.90;;;;;;5000096;28;20466;-69
2021/03/25 01:09:25;;;;;;;18.57;13.00;;;5.70;99.90;;;;;;5005299;28;20662;-68
2021/03/25 01:11:52;;;;;;;17.20;12.23;;;5.70;99.90;;;;;;5005133;28;20178;-69
2021/03/25 01:14:20;;;;;;;19.80;13.37;;;5.80;99.90;;;;;;4990365;28;20450;-67
2021/03/25 01:16:48;;;;;;;19.33;14.27;;;5.80;99.90;;;;;;5004784;28;20541;-67
2021/03/25 01:19:22;;;;;;;20.40;14.50;;;5.70;99.90;;;;;;4997317;28;20811;-68
2021/03/25 01:21:47;;;;;;;15.60;11.23;;;5.70;99.90;;;;;;4997350;28;20430;-68
2021/03/25 01:24:13;;;;;;;19.97;13.87;;;5.70;99.90;;;;;;5001387;28;20459;-68
2021/03/25 01:26:39;;;;;;;18.70;13.60;;;5.70;99.90;;;;;;5002839;28;20210;-68
2021/03/25 01:29:05;;;;;;;16.47;12.17;;;5.70;99.90;;;;;;5000052;28;20171;-68
2021/03/25 01:31:31;;;;;;;19.13;13.60;;;5.60;99.90;;;;;;5011446;28;20983;-68
2021/03/25 01:33:57;;;;;;;20.03;13.77;;;5.60;99.90;;;;;;4996425;28;20462;-69
2021/03/25 01:36:24;;;;;;;17.40;13.03;;;5.60;99.90;;;;;;5003415;28;20449;-68
2021/03/25 01:38:49;;;;;;;17.10;13.13;;;5.60;99.90;;;;;;4994182;28;20802;-68
2021/03/25 01:41:15;;;;;;;16.87;13.20;;;5.60;99.90;;;;;;5005099;28;20430;-68
2021/03/25 01:43:43;;;;;;;16.37;12.50;;;5.60;99.90;;;;;;4999074;28;20286;-67
2021/03/25 01:46:32;;;;;;;17.20;12.30;;;5.60;99.90;;;;;;4994509;28;20242;-68
2021/03/25 01:49:00;;;;;;;25.63;12.47;;;5.60;99.90;;;;;;4977487;28;20521;-69
2021/03/25 01:52:02;;;;;;;19.27;12.70;;;5.70;99.90;;;;;;4999186;28;20427;-69
2021/03/25 01:54:33;;;;;;;19.83;12.53;;;5.60;99.90;;;;;;5001044;28;21142;-68
2021/03/25 01:57:32;;;;;;;16.00;11.87;;;5.60;99.90;;;;;;4998634;28;20433;-68
2021/03/25 02:00:15;;;;;;;19.23;12.57;;;5.60;99.90;;;;;;4996951;28;20422;-68
2021/03/25 02:02:56;;;;;;;15.23;11.73;;;5.60;99.90;;;;;;4996849;28;20466;-68
2021/03/25 02:05:27;;;;;;;16.17;11.83;;;5.60;99.90;;;;;;5003146;28;20948;-68
2021/03/25 02:08:19;;;;;;;22.37;10.97;;;5.60;99.90;;;;;;4996961;28;20457;-69
2021/03/25 02:10:54;;;;;;;18.33;13.30;;;5.60;99.90;;;;;;5004550;28;20928;-70
2021/03/25 02:13:23;;;;;;;17.00;12.40;;;5.60;99.90;;;;;;5006688;28;20445;-69
2021/03/25 02:16:04;;;;;;;17.60;11.33;;;5.50;99.90;;;;;;5003570;28;20462;-70
2021/03/25 02:18:52;;;;;;;17.90;12.60;;;5.50;99.90;;;;;;4987635;28;20435;-69
2021/03/25 02:21:48;;;;;;;17.10;11.37;;;5.40;99.90;;;;;;4996695;28;20517;-68
2021/03/25 02:24:23;;;;;;;15.63;12.00;;;5.40;99.90;;;;;;4998475;28;20587;-68
2021/03/25 02:27:01;;;;;;;14.80;12.07;;;5.30;99.90;;;;;;4994715;28;20789;-69
2021/03/25 02:29:38;;;;;;;14.90;12.40;;;5.30;99.90;;;;;;4997313;28;20440;-68
2021/03/25 02:32:44;;;;;;;13.00;10.83;;;5.40;99.90;;;;;;4996826;28;20430;-69
2021/03/25 02:35:21;;;;;;;15.37;11.83;;;5.40;99.90;;;;;;4949904;28;20500;-68
2021/03/25 02:37:50;;;;;;;13.63;11.30;;;5.40;99.90;;;;;;4995267;28;20437;-68
2021/03/25 02:40:32;;;;;;;14.53;10.80;;;5.50;99.90;;;;;;4999851;28;20421;-71
2021/03/25 02:43:02;;;;;;;15.53;9.93;;;5.50;99.90;;;;;;5009366;28;20469;-68
2021/03/25 02:45:32;;;;;;;15.17;11.50;;;5.40;99.90;;;;;;5002467;28;20442;-71
2021/03/25 02:48:03;;;;;;;15.80;11.67;;;5.40;99.90;;;;;;4991948;28;20465;-68
2021/03/25 02:50:30;;;;;;;13.97;9.90;;;5.40;99.90;;;;;;4995289;28;20515;-69
2021/03/25 02:53:05;;;;;;;14.97;10.27;;;5.30;99.90;;;;;;4998672;28;20557;-70
2021/03/25 02:55:32;;;;;;;11.90;9.97;;;5.20;99.90;;;;;;4974040;28;20524;-68
2021/03/25 02:58:08;;;;;;;15.20;10.83;;;5.20;99.90;;;;;;5004790;28;20880;-70
2021/03/25 03:00:44;;;;;;;14.47;9.80;;;5.10;99.90;;;;;;4998789;28;20442;-71
2021/03/25 03:03:15;;;;;;;12.97;10.10;;;5.10;99.90;;;;;;5000188;28;20552;-70
2021/03/25 03:05:43;;;;;;;10.93;9.70;;;5.20;99.90;;;;;;5007791;28;20434;-70
2021/03/25 03:08:24;;;;;;;14.47;10.80;;;5.20;99.90;;;;;;4994350;28;20521;-68
2021/03/25 03:10:56;;;;;;;15.93;9.43;;;5.20;99.90;;;;;;5001615;28;20426;-68
2021/03/25 03:13:23;;;;;;;11.30;9.33;;;5.10;99.90;;;;;;4992795;28;20512;-69
2021/03/25 03:16:03;;;;;;;14.20;11.40;;;5.10;99.90;;;;;;4992148;28;20534;-69
2021/03/25 03:18:43;;;;;;;11.77;10.10;;;5.10;99.90;;;;;;4993999;28;20438;-68
2021/03/25 03:21:17;;;;;;;11.63;9.53;;;5.00;99.90;;;;;;5007525;28;20437;-67
2021/03/25 03:23:43;;;;;;;13.87;9.83;;;5.00;99.90;;;;;;4995319;28;20553;-69
2021/03/25 03:26:14;;;;;;;19.03;9.77;;;5.10;99.90;;;;;;4991472;28;20890;-68
2021/03/25 03:28:44;;;;;;;11.43;8.83;;;5.00;99.90;;;;;;4996155;28;20566;-67
2021/03/25 03:31:15;;;;;;;11.67;9.60;;;5.10;99.90;;;;;;4998085;28;20437;-70
2021/03/25 03:33:45;;;;;;;11.50;8.47;;;5.10;99.90;;;;;;4991304;28;20469;-68
2021/03/25 03:36:14;;;;;;;14.17;9.47;;;5.10;99.90;;;;;;4996118;28;20809;-70
2021/03/25 03:38:50;;;;;;;10.80;8.90;;;5.00;99.90;;;;;;4994623;28;20476;-67
2021/03/25 03:41:21;;;;;;;11.40;9.13;;;5.00;99.90;;;;;;5006875;28;20936;-70
2021/03/25 03:43:48;;;;;;;15.93;10.07;;;5.00;99.90;;;;;;5014017;28;20543;-70
2021/03/25 03:46:18;;;;;;;12.17;8.70;;;5.00;99.90;;;;;;5010299;28;20563;-71
2021/03/25 03:48:49;;;;;;;9.13;8.10;;;5.00;99.90;;;;;;4990959;28;20434;-71
2021/03/25 03:51:30;;;;;;;11.03;8.70;;;5.00;99.90;;;;;;5003530;28;20433;-69
2021/03/25 03:53:57;;;;;;;10.97;9.10;;;4.90;99.90;;;;;;4996733;28;20462;-69
2021/03/25 03:56:52;;;;;;;13.33;8.60;;;4.90;99.90;;;;;;5000270;28;20446;-69
2021/03/25 03:59:38;;;;;;;10.17;8.70;;;4.90;99.90;;;;;;4994054;28;20454;-69
2021/03/25 04:02:35;;;;;;;10.37;8.60;;;4.90;99.90;;;;;;5007170;28;20435;-70
2021/03/25 04:05:10;;;;;;;10.70;8.10;;;4.80;99.90;;;;;;5000885;28;20426;-70
2021/03/25 04:07:41;;;;;;;13.33;9.50;;;4.80;99.90;;;;;;5012932;28;20586;-70
2021/03/25 04:10:18;;;;;;;11.93;9.40;;;4.80;99.90;;;;;;5007221;28;20460;-69
2021/03/25 04:12:48;;;;;;;11.80;8.93;;;4.80;99.90;;;;;;5001918;28;20461;-70
2021/03/25 04:15:23;;;;;;;13.63;9.87;;;4.70;99.90;;;;;;5012816;28;20440;-70
2021/03/25 04:17:58;;;;;;;12.50;10.50;;;4.70;99.90;;;;;;5012143;28;20448;-69
2021/03/25 04:20:25;;;;;;;13.57;10.57;;;4.70;99.90;;;;;;5004637;28;20786;-70
2021/03/25 04:22:55;;;;;;;12.37;10.93;;;4.70;99.90;;;;;;5002418;28;20535;-70
2021/03/25 04:25:29;;;;;;;12.53;10.20;;;4.60;99.90;;;;;;5010764;28;21028;-70
2021/03/25 04:28:19;;;;;;;13.53;11.53;;;4.70;99.90;;;;;;5001906;28;20436;-69
2021/03/25 04:30:50;;;;;;;14.70;11.40;;;4.70;99.90;;;;;;5011580;28;20434;-70
2021/03/25 04:33:19;;;;;;;19.80;11.00;;;4.70;99.90;;;;;;5010459;28;20799;-70
2021/03/25 04:35:46;;;;;;;14.10;12.10;;;4.70;99.90;;;;;;5003738;28;20998;-71
2021/03/25 04:38:15;;;;;;;10.93;9.80;;;4.70;99.90;;;;;;5003557;28;20446;-70
2021/03/25 04:40:41;;;;;;;25.63;10.90;;;4.70;99.90;;;;;;4993254;28;20861;-70
2021/03/25 04:43:07;;;;;;;18.83;10.87;;;4.60;99.90;;;;;;5001238;28;20502;-70
2021/03/25 04:45:44;;;;;;;12.10;10.20;;;4.60;99.90;;;;;;5012808;28;20461;-70
2021/03/25 04:48:14;;;;;;;18.70;11.57;;;4.60;99.90;;;;;;5010273;28;20429;-69
2021/03/25 04:50:44;;;;;;;13.90;9.87;;;4.60;99.90;;;;;;5005026;28;20441;-70
2021/03/25 04:53:32;;;;;;;17.90;11.70;;;4.60;99.90;;;;;;4986056;28;20450;-70
2021/03/25 04:55:58;;;;;;;13.93;10.80;;;4.50;99.90;;;;;;5004593;28;20427;-70
2021/03/25 04:58:32;;;;;;;12.90;11.57;;;4.50;99.90;;;;;;5004230;28;20529;-70
2021/03/25 05:01:13;;;;;;;17.67;11.83;;;4.50;99.90;;;;;;5003197;28;20442;-69
2021/03/25 05:03:40;;;;;;;12.60;10.90;;;4.40;99.90;;;;;;4996130;28;20500;-71
2021/03/25 05:06:15;;;;;;;11.50;10.33;;;4.40;99.90;;;;;;5008511;28;20436;-70
2021/03/25 05:08:41;;;;;;;14.50;10.40;;;4.40;99.90;;;;;;4996338;28;20454;-70
2021/03/25 05:11:11;;;;;;;13.63;9.87;;;4.40;99.90;;;;;;4992488;28;20473;-69
2021/03/25 05:13:39;;;;;;;11.67;9.60;;;4.40;99.90;;;;;;4993799;28;20458;-69
2021/03/25 05:16:21;;;;;;;12.37;10.07;;;4.30;99.90;;;;;;5011597;28;20433;-69
2021/03/25 05:19:17;;;;;;;15.77;9.77;;;4.40;99.90;;;;;;5004516;28;20481;-70
2021/03/25 05:22:10;;;;;;;10.50;9.40;;;4.30;99.90;;;;;;4996214;28;20449;-70
2021/03/25 05:24:52;;;;;;;14.90;9.90;;;4.30;99.90;;;;;;5010286;28;20449;-71
2021/03/25 05:27:31;;;;;;;11.50;10.30;;;4.30;99.90;;;;;;5009370;28;20426;-71
2021/03/25 05:29:59;;;;;;;15.77;11.20;;;4.30;99.90;;;;;;4997260;28;20483;-71
2021/03/25 05:32:32;;;;;;;10.57;9.47;;;4.30;99.90;;;;;;5010466;28;20869;-72
2021/03/25 05:35:02;;;;;;;14.33;10.23;;;4.30;99.90;;;;;;5010642;28;20457;-72
2021/03/25 05:37:27;;;;;;;10.33;8.27;;;4.30;99.90;;;;;;5009683;28;21032;-71
2021/03/25 05:39:53;;;;;;;14.03;10.40;;;4.40;99.90;;;;;;5010305;28;20509;-71
2021/03/25 05:42:40;;;;;;;13.17;9.63;;;4.40;99.90;;;;;;5012128;28;20246;-71
2021/03/25 05:45:21;;;;;;;11.70;8.93;;;4.50;99.90;;;;;;4996298;28;20855;-69
2021/03/25 05:48:09;;;;;;;13.13;9.10;;;4.60;99.90;;;;;;4992676;28;20441;-69
2021/03/25 05:50:40;;;;;;;9.87;8.73;;;4.60;99.90;;;;;;4992850;28;20429;-70
2021/03/25 05:53:27;;;;;;;10.13;8.10;;;4.70;99.90;;;;;;5008180;28;20450;-70
2021/03/25 05:56:14;;;;;;;14.03;9.10;;;4.80;99.90;;;;;;4993879;28;20465;-69
2021/03/25 05:58:49;;;;;;;11.60;9.07;;;4.90;99.90;;;;;;5004753;28;20436;-70
2021/03/25 06:01:35;;;;;;;16.50;8.70;;;5.00;99.90;;;;;;5003463;28;20511;-70
2021/03/25 06:04:22;;;;;;;12.73;9.53;;;5.10;99.90;;;;;;4992414;28;20462;-70
2021/03/25 06:07:15;;;;;;;10.70;8.37;;;5.20;99.90;;;;;;5004236;28;21177;-70
2021/03/25 06:09:50;;;;;;;13.73;8.67;;;5.40;99.90;;;;;;4995872;28;20431;-70
2021/03/25 06:12:45;;;;;;;12.00;8.77;;;5.60;99.90;;;;;;4999691;28;20591;-70
2021/03/25 06:15:32;;;;;;;13.37;9.07;;;5.80;99.90;;;;;;4993606;28;20430;-70
2021/03/25 06:18:19;;;;;;;10.30;8.70;;;6.00;99.90;;;;;;4999093;28;20430;-70
2021/03/25 06:21:02;;;;;;;9.10;8.30;;;6.20;99.90;;;;;;4987190;28;20483;-69
2021/03/25 06:23:50;;;;;;;9.17;8.33;;;6.50;99.90;;;;;;4981836;28;20462;-69
2021/03/25 06:26:39;;;;;;;10.20;8.63;;;6.90;99.90;;;;;;4993712;28;20954;-69
2021/03/25 06:29:16;;;;;;;12.70;8.70;;;7.20;99.90;;;;;;5006078;28;20937;-69
2021/03/25 06:31:51;;;;;;;10.63;8.67;;;7.50;99.90;;;;;;5005964;28;20477;-69
2021/03/25 06:34:23;;;;;;;11.73;9.57;;;7.70;99.90;;;;;;4998848;28;20968;-69
2021/03/25 06:37:10;;;;;;;12.77;9.80;;;7.80;99.90;;;;;;4995916;28;20871;-70
2021/03/25 06:39:48;;;;;;;14.53;8.60;;;8.10;99.90;;;;;;4998027;28;20431;-67
2021/03/25 06:42:37;;;;;;;15.97;10.30;;;8.30;99.90;;;;;;4997773;28;20435;-65
2021/03/25 06:45:18;;;;;;;10.97;8.67;;;8.40;99.90;;;;;;4993295;28;20518;-66
2021/03/25 06:47:44;;;;;;;12.37;8.60;;;8.50;99.90;;;;;;5001417;28;20434;-66
2021/03/25 06:50:13;;;;;;;11.80;8.87;;;8.60;99.90;;;;;;4990335;28;20517;-67
2021/03/25 06:52:39;;;;;;;9.33;8.43;;;8.70;99.90;;;;;;4990774;28;20277;-67
2021/03/25 06:55:10;;;;;;;12.33;9.50;;;8.80;99.90;;;;;;4993088;28;20470;-66
2021/03/25 06:58:08;;;;;;;17.03;10.23;;;9.00;99.90;;;;;;5008018;28;20661;-67
2021/03/25 07:00:36;;;;;;;12.23;11.00;;;9.20;99.90;;;;;;4988082;28;21120;-66
2021/03/25 07:03:05;;;;;;;15.10;10.07;;;9.50;99.90;;;;;;4992489;28;20481;-67
2021/03/25 07:05:33;;;;;;;12.30;10.07;;;9.60;99.90;;;;;;4991759;28;20431;-66
2021/03/25 07:08:15;;;;;;;14.17;10.90;;;9.80;99.90;;;;;;4997192;28;20437;-68
2021/03/25 07:10:43;;;;;;;14.00;10.73;;;10.00;99.90;;;;;;4990614;28;20792;-66
2021/03/25 07:13:17;;;;;;;13.20;8.67;;;10.00;99.90;;;;;;5000724;28;20450;-67
2021/03/25 07:15:43;;;;;;;9.83;8.80;;;9.70;99.90;;;;;;4996633;28;20470;-66
2021/03/25 07:18:34;;;;;;;13.50;8.77;;;9.50;99.90;;;;;;5009787;28;20441;-66
2021/03/25 07:21:31;;;;;;;9.53;8.60;;;9.40;99.90;;;;;;4999055;28;21205;-67
2021/03/25 07:24:00;;;;;;;8.77;7.43;;;9.30;99.90;;;;;;4977436;28;20502;-66
2021/03/25 07:26:37;;;;;;;14.40;8.30;;;9.30;99.90;;;;;;5005026;28;20426;-67
2021/03/25 07:29:26;;;;;;;12.63;8.37;;;9.30;99.90;;;;;;5000361;28;20484;-68
2021/03/25 07:31:57;;;;;;;12.90;8.47;;;9.50;99.90;;;;;;5011275;28;21969;-66
2021/03/25 07:34:37;;;;;;;11.70;8.93;;;9.70;99.90;;;;;;4999315;28;20993;-66
2021/03/25 07:37:06;;;;;;;10.67;8.23;;;9.80;99.90;;;;;;5001721;28;20517;-68
2021/03/25 07:39:36;;;;;;;11.87;8.77;;;10.00;99.90;;;;;;4999852;28;20430;-66
2021/03/25 07:42:03;;;;;;;12.17;8.77;;;10.10;99.90;;;;;;5008175;28;20464;-66
2021/03/25 07:44:42;;;;;;;17.90;8.73;;;10.30;99.90;;;;;;5010928;28;20470;-67
2021/03/25 07:47:30;;;;;;;15.07;9.07;;;10.60;99.90;;;;;;5009457;28;21022;-67
2021/03/25 07:50:21;;;;;;;18.47;10.10;;;10.80;99.90;;;;;;5010617;28;20434;-67
2021/03/25 07:52:47;;;;;;;12.90;9.13;;;11.00;99.90;;;;;;5013875;28;20528;-66
2021/03/25 07:55:25;;;;;;;11.33;9.37;;;11.20;99.90;;;;;;5003082;28;20429;-67
2021/03/25 07:57:52;;;;;;;13.53;8.17;;;11.70;99.90;;;;;;4998275;28;20857;-66
2021/03/25 08:00:25;;;;;;;9.43;8.43;;;12.10;99.90;;;;;;4994620;28;20430;-66
2021/03/25 08:03:13;;;;;;;12.40;8.40;;;12.60;99.90;;;;;;4996728;28;20862;-65
2021/03/25 08:05:39;;;;;;;8.53;7.40;;;13.00;99.90;;;;;;5017302;28;20446;-66
2021/03/25 08:08:36;;;;;;;12.00;6.90;;;13.30;99.90;;;;;;5015785;28;21012;-66
2021/03/25 08:11:20;;;;;;;13.77;9.10;;;13.50;99.90;;;;;;4996622;28;20438;-65
2021/03/25 08:13:49;;;;;;;8.03;7.20;;;14.00;99.90;;;;;;4994473;28;20893;-66
2021/03/25 08:16:16;;;;;;;9.57;5.47;;;14.40;99.90;;;;;;4992919;28;20445;-66
2021/03/25 08:18:50;;;;;;;6.13;5.47;;;14.10;97.10;;;;;;4997003;28;20458;-66
2021/03/25 08:21:39;;;;;;;9.47;5.20;;;14.00;97.30;;;;;;5005813;28;20430;-66
2021/03/25 08:24:42;;;;;;;8.00;5.33;;;14.00;96.60;;;;;;4999539;28;21096;-66
2021/03/25 08:27:14;;;;;;;5.40;4.90;;;14.10;95.60;;;;;;4993069;28;20461;-66
2021/03/25 08:30:10;;;;;;;15.33;9.50;;;14.30;95.60;;;;;;5000827;28;20453;-67
2021/03/25 08:33:02;;;;;;;7.97;4.50;;;14.50;94.20;;;;;;4997388;28;20453;-67
2021/03/25 08:35:33;;;;;;;6.60;5.60;;;14.90;93.30;;;;;;5007188;28;20796;-67
2021/03/25 08:38:08;;;;;;;6.50;5.03;;;15.40;91.50;;;;;;4991042;28;20492;-67
2021/03/25 08:40:39;;;;;;;7.90;5.30;;;15.70;88.90;;;;;;4998912;28;20575;-66
2021/03/25 08:43:16;;;;;;;8.40;5.33;;;15.80;88.40;;;;;;5009438;28;20473;-66
2021/03/25 08:45:51;;;;;;;6.37;3.90;;;15.80;85.80;;;;;;4992582;28;20761;-67
2021/03/25 08:48:23;;;;;;;6.43;4.80;;;15.80;86.00;;;;;;4982951;28;20430;-66
2021/03/25 08:51:08;;;;;;;11.63;4.37;;;16.10;85.00;;;;;;4998767;28;20938;-67
2021/03/25 08:54:16;;;;;;;6.93;5.37;;;16.50;83.90;;;;;;5003564;28;20458;-66
2021/03/25 08:56:50;;;;;;;5.40;4.63;;;17.40;83.70;;;;;;5000445;28;20436;-67
2021/03/25 08:59:34;;;;;;;6.93;5.53;;;17.70;79.50;;;;;;5003559;28;20512;-66
2021/03/25 09:02:02;;;;;;;6.60;5.50;;;17.60;78.20;;;;;;5000949;28;20445;-67
2021/03/25 09:04:37;;;;;;;5.70;5.20;;;18.20;77.20;;;;;;5000475;28;20544;-66
2021/03/25 09:07:05;;;;;;;7.13;5.73;;;19.00;74.00;;;;;;5001034;28;21479;-67
2021/03/25 09:09:43;;;;;;;7.70;5.10;;;19.30;71.10;;;;;;4980614;28;20445;-67
2021/03/25 09:12:11;;;;;;;5.07;4.57;;;19.80;67.00;;;;;;4989287;28;20492;-67
2021/03/25 09:14:37;;;;;;;7.53;5.10;;;19.80;65.40;;;;;;4990214;28;21091;-68
2021/03/25 09:17:06;;;;;;;6.90;5.77;;;20.30;62.50;;;;;;4998764;28;20964;-67
2021/03/25 09:19:37;;;;;;;5.40;4.87;;;20.40;62.50;;;;;;4994286;28;20434;-67
2021/03/25 09:22:04;;;;;;;8.03;6.47;;;20.70;59.20;;;;;;5005475;28;20434;-67
2021/03/25 09:24:29;;;;;;;7.60;6.30;;;21.00;58.50;;;;;;4992957;28;20835;-68
2021/03/25 09:27:04;;;;;;;5.47;4.97;;;21.80;57.30;;;;;;4999995;28;20430;-68
2021/03/25 09:29:33;;;;;;;8.13;5.13;;;22.00;54.20;;;;;;4971812;28;20953;-67
2021/03/25 09:31:59;;;;;;;6.53;5.93;;;22.30;53.20;;;;;;4995407;28;21156;-67
2021/03/25 09:34:24;;;;;;;9.53;5.90;;;23.20;52.90;;;;;;4992365;28;20544;-67
2021/03/25 09:36:56;;;;;;;8.10;5.17;;;24.20;50.90;;;;;;4988621;28;20647;-67
2021/03/25 09:39:29;;;;;;;8.47;5.63;;;24.50;47.90;;;;;;5000274;28;20183;-68
2021/03/25 09:41:57;;;;;;;6.07;5.57;;;22.70;50.70;;;;;;5006387;28;20447;-68
2021/03/25 09:44:30;;;;;;;5.90;5.37;;;22.40;50.10;;;;;;5008560;28;20560;-67
2021/03/25 09:46:59;;;;;;;5.60;5.10;;;21.40;49.00;;;;;;4986630;28;20514;-67
2021/03/25 09:49:45;;;;;;;6.93;5.77;;;21.30;50.00;;;;;;5000396;28;20434;-66
2021/03/25 09:52:23;;;;;;;5.20;4.70;;;21.20;49.90;;;;;;4994551;28;20466;-67
2021/03/25 09:55:11;;;;;;;11.83;6.10;;;21.10;49.90;;;;;;5007105;28;20548;-67
2021/03/25 09:57:42;;;;;;;7.20;6.47;;;21.60;50.60;;;;;;5002460;28;20437;-67
2021/03/25 10:00:08;;;;;;;6.57;5.47;;;22.40;50.30;;;;;;4997575;28;20438;-67
2021/03/25 10:03:05;;;;;;;6.13;5.23;;;22.50;49.80;;;;;;4997633;28;20516;-67
2021/03/25 10:05:31;;;;;;;8.67;5.53;;;23.90;47.40;;;;;;5002776;28;20639;-67
2021/03/25 10:08:03;;;;;;;7.40;6.67;;;23.40;47.00;;;;;;5002272;28;20425;-67
2021/03/25 10:10:46;;;;;;;8.93;7.70;;;23.70;46.80;;;;;;5003877;28;20183;-67
2021/03/25 10:13:16;;;;;;;11.50;7.20;;;24.60;47.20;;;;;;4994800;28;20454;-67
2021/03/25 10:15:53;;;;;;;12.07;7.77;;;25.50;46.20;;;;;;5000055;28;20434;-67
2021/03/25 10:18:38;;;;;;;10.33;7.30;;;25.80;45.40;;;;;;4996895;28;20465;-66
2021/03/25 10:21:08;;;;;;;9.20;7.00;;;26.60;43.90;;;;;;5004854;28;20442;-67
2021/03/25 10:23:49;;;;;;;11.90;7.37;;;27.40;43.00;;;;;;5009856;28;20497;-68
2021/03/25 10:26:38;;;;;;;10.83;8.53;;;27.90;41.50;;;;;;4995613;28;20456;-67
2021/03/25 10:29:15;;;;;;;11.47;7.27;;;27.80;39.70;;;;;;4996692;28;20438;-67
2021/03/25 10:31:48;;;;;;;10.90;8.70;;;27.80;39.50;;;;;;4994804;28;20438;-67
2021/03/25 10:34:24;;;;;;;8.53;7.50;;;27.90;39.10;;;;;;4980000;28;20464;-67
2021/03/25 10:37:01;;;;;;;9.40;7.50;;;27.30;38.50;;;;;;4995491;28;20670;-67
2021/03/25 10:39:34;;;;;;;11.70;10.50;;;27.40;38.60;;;;;;4992536;28;20469;-66
2021/03/25 10:42:24;;;;;;;8.87;7.80;;;26.20;39.80;;;;;;4992607;28;20520;-67
2021/03/25 10:44:51;;;;;;;10.40;8.50;;;25.50;40.30;;;;;;4998432;28;20441;-66
2021/03/25 10:47:30;;;;;;;8.33;7.50;;;24.90;40.40;;;;;;5009272;28;20517;-67
2021/03/25 10:49:59;;;;;;;12.93;7.80;;;25.20;40.70;;;;;;4998827;28;20462;-67
2021/03/25 10:52:27;;;;;;;9.33;8.43;;;26.00;40.20;;;;;;4993665;28;20430;-67
2021/03/25 10:54:56;;;;;;;11.57;7.63;;;26.40;39.10;;;;;;5010070;28;20433;-67
2021/03/25 10:57:26;;;;;;;9.70;8.70;;;26.20;39.30;;;;;;4998100;28;20427;-67
2021/03/25 11:00:15;;;;;;;7.87;7.17;;;26.60;39.10;;;;;;4993458;28;20430;-68
2021/03/25 11:02:44;;;;;;;9.20;7.50;;;26.80;38.00;;;;;;5008791;28;20991;-69
2021/03/25 11:05:21;;;;;;;9.90;7.30;;;28.00;37.80;;;;;;5007858;28;20492;-66
2021/03/25 11:07:52;;;;;;;10.13;7.90;;;28.10;37.10;;;;;;4991679;28;20847;-65
2021/03/25 11:10:24;;;;;;;8.70;7.80;;;28.20;36.80;;;;;;4990977;28;20465;-66
2021/03/25 11:12:57;;;;;;;11.67;7.93;;;27.20;37.30;;;;;;4990949;28;20488;-66
2021/03/25 11:15:30;;;;;;;11.43;9.50;;;25.10;38.50;;;;;;4991320;28;20427;-66
2021/03/25 11:17:56;;;;;;;8.63;7.50;;;23.50;40.40;;;;;;4998523;28;20838;-66
2021/03/25 11:20:25;;;;;;;10.80;7.63;;;22.10;42.30;;;;;;5010404;28;20484;-66
2021/03/25 11:22:54;;;;;;;13.37;7.80;;;21.60;45.00;;;;;;5010139;28;20203;-66
2021/03/25 11:25:24;;;;;;;9.43;7.23;;;21.00;44.50;;;;;;5010740;28;21087;-66
2021/03/25 11:27:51;;;;;;;9.33;8.43;;;20.70;44.50;;;;;;5010786;28;20501;-66
2021/03/25 11:30:54;;;;;;;10.67;7.53;;;22.50;43.50;;;;;;5006595;28;20497;-66
2021/03/25 11:33:29;;;;;;;9.40;7.13;;;24.30;41.00;;;;;;4919045;29;20577;-68
2021/03/25 11:35:59;;;;;;;9.00;8.10;;;24.90;40.00;;;;;;4981414;28;20445;-67
2021/03/25 11:38:24;;;;;;;8.10;7.30;;;23.40;40.30;;;;;;4991376;28;20435;-67
2021/03/25 11:40:53;;;;;;;7.27;6.53;;;23.40;41.10;;;;;;4990745;28;20521;-67
2021/03/25 11:43:23;;;;;;;9.47;7.30;;;25.50;39.90;;;;;;5001365;28;20578;-66
2021/03/25 11:45:53;;;;;;;10.03;7.33;;;27.40;38.20;;;;;;5006737;28;21011;-67
2021/03/25 11:48:26;;;;;;;8.90;7.87;;;28.90;36.20;;;;;;5008571;28;20433;-67
2021/03/25 11:50:54;;;;;;;9.30;7.03;;;30.20;35.50;;;;;;4991466;28;20419;-68
2021/03/25 11:53:40;;;;;;;9.53;8.10;;;30.10;34.60;;;;;;4998095;28;20450;-67
2021/03/25 11:56:20;;;;;;;9.93;8.93;;;29.10;34.70;;;;;;4996006;28;20509;-66
2021/03/25 11:58:58;;;;;;;13.43;9.20;;;27.00;36.50;;;;;;5003640;28;21021;-67
2021/03/25 12:01:26;;;;;;;9.50;7.80;;;24.70;38.80;;;;;;4994440;28;20437;-66
2021/03/25 12:03:57;;;;;;;8.30;7.10;;;25.00;39.20;;;;;;5000560;28;20546;-67
2021/03/25 12:06:35;;;;;;;8.40;7.20;;;25.90;38.30;;;;;;5004464;28;20430;-66
2021/03/25 12:09:15;;;;;;;8.47;7.10;;;28.10;36.90;;;;;;5010734;28;20520;-67
2021/03/25 12:11:43;;;;;;;7.47;6.10;;;28.70;35.30;;;;;;5011539;28;20429;-66
2021/03/25 12:14:09;;;;;;;8.10;6.40;;;27.50;36.40;;;;;;5002719;28;20822;-66
2021/03/25 12:16:36;;;;;;;7.57;6.97;;;26.80;37.50;;;;;;5011294;28;20433;-66
2021/03/25 12:19:02;;;;;;;10.87;9.87;;;26.40;37.90;;;;;;4999092;28;20171;-67
2021/03/25 12:21:30;;;;;;;9.00;8.10;;;25.00;38.20;;;;;;4997113;28;20800;-67
2021/03/25 12:23:58;;;;;;;10.57;8.80;;;23.70;40.30;;;;;;4998833;28;20503;-66
2021/03/25 12:26:25;;;;;;;7.90;7.10;;;24.40;40.30;;;;;;5010988;28;20437;-68
2021/03/25 12:28:51;;;;;;;8.13;7.30;;;24.80;39.60;;;;;;5007741;28;20435;-66
2021/03/25 12:31:23;;;;;;;9.20;8.23;;;25.60;38.70;;;;;;5006397;28;20514;-66
2021/03/25 12:33:51;;;;;;;11.07;8.47;;;27.10;38.20;;;;;;5011695;28;20457;-67
2021/03/25 12:36:18;;;;;;;11.40;8.37;;;29.10;36.50;;;;;;5004656;28;20438;-66
2021/03/25 12:38:45;;;;;;;9.70;8.60;;;29.90;34.80;;;;;;4993893;28;20496;-66
2021/03/25 12:41:29;;;;;;;13.50;8.33;;;30.30;34.50;;;;;;5008957;28;20508;-66
2021/03/25 12:43:55;;;;;;;9.60;8.60;;;30.30;34.70;;;;;;4994682;28;20486;-66
2021/03/25 12:46:20;;;;;;;9.30;8.40;;;30.40;34.50;;;;;;5001058;28;20493;-66
2021/03/25 12:48:46;;;;;;;9.60;8.70;;;30.10;34.10;;;;;;5012348;28;20182;-66
2021/03/25 12:51:15;;;;;;;13.50;8.60;;;28.40;35.00;;;;;;5000959;28;20191;-66
2021/03/25 12:53:45;;;;;;;9.33;8.00;;;26.60;37.00;;;;;;5002456;28;20195;-66
2021/03/25 12:56:15;;;;;;;11.70;10.40;;;24.80;39.10;;;;;;5012584;28;20527;-66
2021/03/25 12:58:41;;;;;;;11.53;9.60;;;23.60;41.20;;;;;;5004046;28;20437;-66
2021/03/25 13:01:14;;;;;;;14.10;12.37;;;22.70;42.70;;;;;;5012531;28;20433;-66
2021/03/25 13:03:41;;;;;;;9.60;8.40;;;21.70;44.30;;;;;;4994404;28;20238;-65
2021/03/25 13:06:08;;;;;;;10.13;9.13;;;21.10;45.50;;;;;;5005826;28;20537;-66
2021/03/25 13:08:34;;;;;;;11.40;9.80;;;20.80;46.30;;;;;;5014997;28;20509;-66
2021/03/25 13:11:00;;;;;;;15.53;9.60;;;20.50;46.50;;;;;;5007747;28;20433;-66
2021/03/25 13:13:25;;;;;;;13.80;9.30;;;20.30;47.40;;;;;;5009369;28;20480;-66
2021/03/25 13:15:52;;;;;;;10.33;8.20;;;20.30;47.40;;;;;;5007233;28;20187;-66
2021/03/25 13:18:18;;;;;;;10.77;9.63;;;20.70;47.50;;;;;;4994960;28;20604;-66